Time;durP1;ratioP1;P1;durP2;ratioP2;P2;SDS_P1;SDS_P2;PMS_P1;PMS_P2;Temp;Humidity;BMP_temperature;BMP_pressure;BME280_temperature;BME280_humidity;BME280_pressure;Samples;Min_cycle;Max_cycle;Signal;HPM_P1;HPM_P2
2021/01/22 00:01:56;;;;;;;26.42;23.73;;;23.60;78.30;;;;;;5037841;28;20696;-55
2021/01/22 00:04:27;;;;;;;26.10;23.67;;;23.60;78.40;;;;;;5035729;28;20304;-53
2021/01/22 00:06:58;;;;;;;27.38;24.77;;;23.60;78.50;;;;;;5043230;28;20233;-50
2021/01/22 00:09:31;;;;;;;25.52;23.05;;;23.60;78.50;;;;;;5050083;28;20233;-53
2021/01/22 00:12:02;;;;;;;29.45;26.58;;;23.60;78.80;;;;;;5038914;28;20237;-52
2021/01/22 00:14:33;;;;;;;29.50;26.83;;;23.60;78.80;;;;;;5037395;28;20304;-53
2021/01/22 00:17:05;;;;;;;30.38;27.17;;;23.60;78.90;;;;;;5043266;28;20221;-52
2021/01/22 00:19:36;;;;;;;26.88;24.30;;;23.60;79.10;;;;;;5046887;28;20237;-50
2021/01/22 00:22:07;;;;;;;29.52;26.45;;;23.70;79.30;;;;;;5038108;28;20307;-53
2021/01/22 00:24:38;;;;;;;27.95;25.17;;;23.70;79.40;;;;;;5033823;28;20237;-52
2021/01/22 00:27:09;;;;;;;28.13;25.38;;;23.70;79.50;;;;;;5037899;28;20227;-51
2021/01/22 00:29:40;;;;;;;28.67;25.98;;;23.70;79.50;;;;;;5041968;28;20233;-54
2021/01/22 00:32:11;;;;;;;28.10;25.55;;;23.70;79.70;;;;;;5044102;28;20236;-50
2021/01/22 00:34:43;;;;;;;27.30;24.77;;;23.70;79.70;;;;;;5028021;28;20233;-52
2021/01/22 00:37:13;;;;;;;25.65;23.38;;;23.80;79.80;;;;;;5044807;28;20229;-50
2021/01/22 00:39:45;;;;;;;25.73;23.30;;;23.80;80.00;;;;;;5045947;28;20241;-49
2021/01/22 00:42:15;;;;;;;29.38;26.45;;;23.90;80.20;;;;;;5035054;28;20570;-51
2021/01/22 00:44:46;;;;;;;28.90;25.98;;;23.90;80.40;;;;;;5038447;28;20226;-55
2021/01/22 00:47:17;;;;;;;30.05;27.17;;;23.90;80.80;;;;;;5044489;28;20225;-54
2021/01/22 00:49:48;;;;;;;31.17;28.08;;;24.00;81.10;;;;;;5030288;28;20227;-55
2021/01/22 00:52:19;;;;;;;32.97;29.63;;;24.00;81.40;;;;;;5035368;28;20226;-52
2021/01/22 00:54:50;;;;;;;32.45;29.33;;;24.10;81.70;;;;;;5046365;28;20237;-52
2021/01/22 00:57:21;;;;;;;35.55;31.85;;;24.10;82.00;;;;;;5047193;28;20671;-51
2021/01/22 00:59:52;;;;;;;34.05;30.75;;;24.20;82.30;;;;;;5045064;28;20233;-50
2021/01/22 01:02:22;;;;;;;36.55;33.13;;;24.30;82.60;;;;;;5043566;28;20268;-54
2021/01/22 01:04:54;;;;;;;39.58;35.83;;;24.30;83.00;;;;;;5016365;28;20246;-54
2021/01/22 01:07:24;;;;;;;41.00;37.00;;;24.40;83.10;;;;;;5024776;28;20714;-55
2021/01/22 01:09:56;;;;;;;40.45;36.35;;;24.50;83.40;;;;;;5030640;28;20990;-52
2021/01/22 01:12:27;;;;;;;37.65;34.17;;;24.60;83.60;;;;;;5033276;28;20626;-53
2021/01/22 01:14:58;;;;;;;38.10;34.35;;;24.70;83.60;;;;;;5022193;28;20238;-54
2021/01/22 01:17:30;;;;;;;39.25;35.47;;;24.70;83.50;;;;;;5024353;28;20227;-52
2021/01/22 01:20:02;;;;;;;37.03;33.58;;;24.90;83.40;;;;;;5017999;28;20309;-54
2021/01/22 01:22:33;;;;;;;38.75;35.00;;;25.00;83.40;;;;;;5014900;28;20227;-56
2021/01/22 01:25:06;;;;;;;40.08;36.35;;;25.10;83.40;;;;;;5023592;28;20261;-56
2021/01/22 01:27:36;;;;;;;42.70;38.40;;;25.10;83.30;;;;;;5024460;28;20287;-51
2021/01/22 01:30:08;;;;;;;44.17;39.72;;;25.30;83.30;;;;;;5029876;28;20300;-52
2021/01/22 01:32:38;;;;;;;44.38;40.13;;;25.40;83.30;;;;;;5036561;28;20230;-51
2021/01/22 01:35:10;;;;;;;43.38;39.08;;;25.40;83.10;;;;;;5026048;28;20231;-50
2021/01/22 01:37:42;;;;;;;44.70;40.38;;;25.60;83.30;;;;;;5034268;28;20221;-53
2021/01/22 01:40:14;;;;;;;44.33;39.97;;;25.60;83.10;;;;;;5038994;28;20232;-51
2021/01/22 01:42:45;;;;;;;46.03;41.65;;;25.80;83.00;;;;;;5031333;28;20336;-51
2021/01/22 01:45:16;;;;;;;43.22;39.13;;;25.90;82.70;;;;;;5031043;28;20241;-55
2021/01/22 01:47:47;;;;;;;38.25;34.60;;;26.00;82.60;;;;;;5033636;28;20281;-51
2021/01/22 01:50:17;;;;;;;39.22;35.35;;;26.10;82.50;;;;;;5030242;28;20288;-51
2021/01/22 01:52:48;;;;;;;39.60;35.80;;;26.20;82.10;;;;;;5023875;28;20656;-54
2021/01/22 01:55:20;;;;;;;37.85;34.08;;;26.30;81.80;;;;;;5028371;28;20227;-52
2021/01/22 01:57:51;;;;;;;39.88;35.88;;;26.40;81.50;;;;;;5033301;28;20234;-56
2021/01/22 02:00:22;;;;;;;39.92;36.20;;;26.50;81.10;;;;;;5032739;28;20257;-53
2021/01/22 02:02:54;;;;;;;36.63;33.05;;;26.60;80.70;;;;;;4965549;28;20244;-51
2021/01/22 02:05:25;;;;;;;38.10;34.17;;;26.60;79.90;;;;;;4984897;28;20635;-53
2021/01/22 02:07:55;;;;;;;33.95;30.75;;;26.70;78.80;;;;;;4983872;28;20247;-54
2021/01/22 02:10:27;;;;;;;32.20;29.15;;;26.80;78.30;;;;;;4984633;28;20239;-51
2021/01/22 02:12:58;;;;;;;36.63;32.72;;;26.90;77.10;;;;;;4984103;28;20228;-53
2021/01/22 02:15:30;;;;;;;35.20;31.92;;;27.00;76.60;;;;;;4981455;28;20760;-50
2021/01/22 02:18:01;;;;;;;31.80;28.92;;;27.10;76.10;;;;;;4943713;28;20309;-53
2021/01/22 02:20:41;;;;;;;29.58;26.85;;;27.20;74.60;;;;;;4950616;28;20734;-51
2021/01/22 02:23:12;;;;;;;28.20;25.58;;;27.30;73.40;;;;;;4948841;28;20260;-51
2021/01/22 02:25:44;;;;;;;29.98;27.23;;;27.40;74.00;;;;;;4956929;28;20243;-52
2021/01/22 02:28:16;;;;;;;28.95;26.20;;;27.50;73.50;;;;;;4949636;28;20237;-53
2021/01/22 02:30:47;;;;;;;31.73;28.60;;;27.50;73.10;;;;;;4951011;28;20233;-53
2021/01/22 02:33:17;;;;;;;34.60;31.38;;;27.60;72.60;;;;;;4954756;28;20330;-52
2021/01/22 02:35:50;;;;;;;31.52;28.52;;;27.70;72.00;;;;;;4943257;28;20696;-55
2021/01/22 02:38:21;;;;;;;32.08;29.05;;;27.80;71.50;;;;;;4943558;28;20324;-51
2021/01/22 02:40:56;;;;;;;30.90;28.00;;;27.90;71.40;;;;;;4946223;28;20237;-55
2021/01/22 02:43:27;;;;;;;32.72;29.63;;;28.00;70.70;;;;;;4947683;28;20227;-56
2021/01/22 02:45:58;;;;;;;33.83;30.33;;;28.10;67.40;;;;;;4946031;28;20340;-53
2021/01/22 02:48:29;;;;;;;28.50;25.92;;;28.20;65.60;;;;;;4964537;28;20262;-51
2021/01/22 02:51:00;;;;;;;29.33;26.38;;;28.20;66.30;;;;;;4984165;28;21005;-55
2021/01/22 02:53:31;;;;;;;30.70;27.60;;;28.40;66.60;;;;;;4985507;28;20322;-52
2021/01/22 02:56:02;;;;;;;31.17;28.17;;;28.40;66.10;;;;;;4985054;28;20314;-53
2021/01/22 02:58:38;;;;;;;29.20;26.42;;;28.50;64.50;;;;;;4989365;28;20658;-50
2021/01/22 03:01:10;;;;;;;27.30;24.75;;;28.60;64.60;;;;;;4979832;28;20776;-54
2021/01/22 03:03:46;;;;;;;29.88;27.17;;;28.70;64.70;;;;;;4979464;28;20753;-51
2021/01/22 03:06:21;;;;;;;28.25;25.25;;;28.80;62.80;;;;;;5002294;28;20225;-52
2021/01/22 03:08:53;;;;;;;25.88;23.55;;;29.00;63.30;;;;;;5015672;28;20317;-55
2021/01/22 03:11:24;;;;;;;26.80;24.40;;;29.10;63.20;;;;;;4961614;28;20599;-50
2021/01/22 03:13:56;;;;;;;26.45;24.10;;;29.20;63.00;;;;;;4961161;28;20232;-53
2021/01/22 03:16:27;;;;;;;27.60;24.90;;;29.30;62.70;;;;;;4963723;28;20270;-53
2021/01/22 03:19:02;;;;;;;28.10;25.25;;;29.40;62.20;;;;;;4961888;28;20267;-50
2021/01/22 03:21:32;;;;;;;26.42;24.10;;;29.50;61.50;;;;;;4950482;28;20239;-50
2021/01/22 03:24:03;;;;;;;27.75;25.15;;;29.60;61.40;;;;;;4960526;28;20651;-53
2021/01/22 03:26:35;;;;;;;29.10;26.42;;;29.70;60.90;;;;;;4961367;28;20254;-50
2021/01/22 03:29:08;;;;;;;30.92;28.10;;;29.80;59.90;;;;;;4964816;28;20275;-51
2021/01/22 03:31:39;;;;;;;26.15;23.73;;;29.80;58.30;;;;;;4953433;28;20243;-54
2021/01/22 03:34:10;;;;;;;27.85;25.23;;;29.90;59.40;;;;;;4963292;28;20233;-52
2021/01/22 03:36:41;;;;;;;28.88;26.33;;;30.00;58.80;;;;;;4961248;28;20236;-53
2021/01/22 03:39:12;;;;;;;27.85;25.38;;;30.10;57.60;;;;;;4969253;28;20231;-55
2021/01/22 03:41:42;;;;;;;28.90;26.00;;;30.10;57.40;;;;;;4995536;28;20246;-53
2021/01/22 03:44:14;;;;;;;35.35;26.67;;;30.20;57.90;;;;;;5037398;28;20239;-50
2021/01/22 03:46:45;;;;;;;30.42;27.58;;;30.40;57.90;;;;;;5035175;28;20234;-53
2021/01/22 03:49:16;;;;;;;27.95;25.35;;;30.50;57.30;;;;;;5036329;28;20238;-52
2021/01/22 03:51:46;;;;;;;29.77;27.02;;;30.50;57.70;;;;;;5026400;28;20817;-51
2021/01/22 03:54:18;;;;;;;30.48;27.83;;;30.60;57.70;;;;;;5042006;28;20229;-52
2021/01/22 03:56:49;;;;;;;28.73;25.95;;;30.70;56.70;;;;;;5043836;28;20288;-54
2021/01/22 03:59:21;;;;;;;26.58;24.23;;;30.80;56.30;;;;;;5035816;28;20638;-50
2021/01/22 04:01:51;;;;;;;26.88;24.35;;;30.90;56.30;;;;;;5035163;28;20320;-54
2021/01/22 04:04:22;;;;;;;24.60;22.38;;;31.00;56.70;;;;;;5026161;28;20254;-54
2021/01/22 04:07:02;;;;;;;25.17;23.08;;;31.10;56.70;;;;;;5036180;28;20788;-53
2021/01/22 04:09:32;;;;;;;24.55;22.25;;;31.10;56.40;;;;;;5035813;28;20253;-53
2021/01/22 04:12:03;;;;;;;22.20;20.23;;;31.30;56.60;;;;;;5030106;28;20758;-54
2021/01/22 04:14:35;;;;;;;25.60;22.90;;;31.30;56.10;;;;;;5043902;28;20227;-55
2021/01/22 04:17:06;;;;;;;26.13;23.73;;;31.40;55.00;;;;;;5043856;28;20697;-52
2021/01/22 04:19:37;;;;;;;25.38;22.98;;;31.50;54.10;;;;;;5036885;28;20248;-51
2021/01/22 04:22:07;;;;;;;24.33;22.02;;;31.60;53.90;;;;;;5040852;28;20229;-56
2021/01/22 04:24:38;;;;;;;28.75;26.20;;;31.70;54.20;;;;;;5043712;28;20226;-55
2021/01/22 04:27:09;;;;;;;25.98;23.48;;;31.70;52.20;;;;;;5047316;28;20229;-53
2021/01/22 04:29:42;;;;;;;24.52;22.45;;;31.80;52.70;;;;;;5032524;28;20222;-53
2021/01/22 04:32:12;;;;;;;25.92;23.52;;;31.90;53.20;;;;;;5024996;28;20230;-57
2021/01/22 04:34:43;;;;;;;27.02;24.52;;;32.00;52.50;;;;;;5027434;28;20318;-54
2021/01/22 04:37:14;;;;;;;26.02;23.67;;;32.00;52.10;;;;;;5043507;28;20716;-55
2021/01/22 04:39:45;;;;;;;26.60;23.85;;;32.20;52.40;;;;;;5035615;28;20227;-56
2021/01/22 04:42:16;;;;;;;25.27;22.92;;;32.20;52.00;;;;;;5042106;28;20229;-51
2021/01/22 04:44:47;;;;;;;39.63;36.00;;;32.30;53.00;;;;;;5034323;28;20226;-52
2021/01/22 04:47:18;;;;;;;40.47;36.35;;;32.40;55.50;;;;;;4982393;28;20239;-52
2021/01/22 04:49:51;;;;;;;40.85;37.05;;;32.40;56.20;;;;;;4972850;28;20323;-56
2021/01/22 04:52:21;;;;;;;42.83;38.80;;;32.50;56.60;;;;;;4986773;28;20332;-51
2021/01/22 04:54:52;;;;;;;43.10;38.92;;;32.50;56.00;;;;;;4991352;28;20259;-55
2021/01/22 04:57:23;;;;;;;39.13;35.63;;;32.50;55.90;;;;;;4985806;28;20231;-52
2021/01/22 04:59:55;;;;;;;42.38;38.22;;;32.60;55.90;;;;;;4988553;28;20262;-51
2021/01/22 05:02:26;;;;;;;38.25;34.75;;;32.50;55.50;;;;;;4987423;28;21016;-50
2021/01/22 05:04:57;;;;;;;41.70;37.83;;;32.50;55.50;;;;;;4984934;28;20274;-52
2021/01/22 05:07:29;;;;;;;39.95;36.42;;;32.50;55.50;;;;;;4982084;28;20330;-52
2021/01/22 05:09:59;;;;;;;42.60;38.75;;;32.50;55.20;;;;;;4975135;28;20700;-49
2021/01/22 05:12:40;;;;;;;40.38;36.58;;;32.60;55.00;;;;;;4982379;28;20242;-53
2021/01/22 05:15:19;;;;;;;43.08;39.05;;;32.50;54.60;;;;;;4983849;28;20306;-50
2021/01/22 05:17:56;;;;;;;43.08;39.05;;;32.50;54.90;;;;;;5000344;28;20233;-52
2021/01/22 05:20:34;;;;;;;38.80;34.90;;;32.40;54.70;;;;;;5040976;28;20257;-52
2021/01/22 05:23:05;;;;;;;42.58;38.72;;;32.40;55.20;;;;;;5048247;28;20244;-52
2021/01/22 05:25:35;;;;;;;47.42;43.15;;;32.40;55.00;;;;;;5040138;28;20244;-54
2021/01/22 05:28:06;;;;;;;48.63;43.85;;;32.40;54.80;;;;;;5032929;28;20229;-52
2021/01/22 05:30:38;;;;;;;42.47;38.55;;;32.40;54.60;;;;;;5038697;28;20222;-50
2021/01/22 05:33:17;;;;;;;37.15;33.95;;;32.40;55.00;;;;;;5034334;28;20280;-51
2021/01/22 05:35:47;;;;;;;41.35;37.47;;;32.40;55.30;;;;;;5034893;28;20222;-50
2021/01/22 05:38:18;;;;;;;38.83;35.22;;;32.30;55.20;;;;;;5038876;28;20264;-53
2021/01/22 05:40:51;;;;;;;36.15;33.03;;;32.30;55.10;;;;;;5044729;28;20824;-50
2021/01/22 05:43:22;;;;;;;39.95;36.25;;;32.40;55.10;;;;;;5051540;28;20678;-54
2021/01/22 05:45:54;;;;;;;39.25;35.65;;;32.40;54.30;;;;;;4983789;28;20336;-51
2021/01/22 05:48:24;;;;;;;34.40;31.33;;;32.40;54.20;;;;;;4987827;28;20653;-54
2021/01/22 05:50:57;;;;;;;41.00;37.33;;;32.40;54.50;;;;;;4986489;28;20270;-50
2021/01/22 05:53:28;;;;;;;35.20;32.00;;;32.50;53.60;;;;;;4991245;28;20244;-55
2021/01/22 05:56:08;;;;;;;34.15;31.13;;;32.50;53.80;;;;;;4983583;28;20247;-54
2021/01/22 05:58:40;;;;;;;38.25;34.83;;;32.50;53.60;;;;;;4988064;28;20601;-53
2021/01/22 06:01:13;;;;;;;35.08;31.98;;;32.60;53.10;;;;;;4979952;28;20266;-55
2021/01/22 06:03:45;;;;;;;35.28;32.17;;;32.60;53.30;;;;;;4984093;28;20275;-51
2021/01/22 06:06:15;;;;;;;36.63;33.15;;;32.60;52.90;;;;;;4990993;28;20262;-55
2021/01/22 06:08:50;;;;;;;34.55;31.35;;;32.70;53.00;;;;;;4986123;28;20642;-53
2021/01/22 06:11:23;;;;;;;36.35;33.15;;;32.70;52.80;;;;;;5035823;28;20230;-52
2021/01/22 06:13:54;;;;;;;38.75;35.13;;;32.80;52.70;;;;;;5046750;28;20226;-55
2021/01/22 06:16:27;;;;;;;37.95;34.55;;;32.90;52.60;;;;;;5049217;28;20237;-52
2021/01/22 06:18:58;;;;;;;39.08;35.55;;;32.90;52.60;;;;;;5041894;28;20230;-54
2021/01/22 06:21:31;;;;;;;38.72;35.17;;;32.90;52.30;;;;;;5049115;28;20294;-55
2021/01/22 06:24:02;;;;;;;36.20;33.20;;;32.90;51.80;;;;;;5051122;28;20230;-55
2021/01/22 06:26:33;;;;;;;40.50;36.88;;;32.90;52.10;;;;;;5041989;28;20771;-52
2021/01/22 06:29:04;;;;;;;38.78;35.40;;;33.00;52.20;;;;;;5041859;28;20241;-52
2021/01/22 06:31:36;;;;;;;35.83;32.72;;;33.00;52.00;;;;;;5042698;28;20225;-51
2021/01/22 06:34:07;;;;;;;36.03;32.72;;;33.00;52.20;;;;;;5046936;28;20240;-51
2021/01/22 06:36:37;;;;;;;38.10;34.50;;;33.00;51.90;;;;;;5046270;28;20229;-51
2021/01/22 06:39:08;;;;;;;33.40;30.20;;;33.00;51.80;;;;;;5040251;28;20258;-53
2021/01/22 06:41:39;;;;;;;35.85;32.40;;;33.10;52.10;;;;;;5004436;28;20706;-51
2021/01/22 06:44:10;;;;;;;38.92;35.50;;;33.10;52.20;;;;;;5000927;28;20879;-52
2021/01/22 06:46:45;;;;;;;38.70;35.30;;;33.10;51.60;;;;;;5001205;28;20652;-52
2021/01/22 06:49:16;;;;;;;38.03;34.63;;;33.10;52.00;;;;;;5004534;28;20386;-53
2021/01/22 06:51:46;;;;;;;33.33;30.38;;;33.10;52.20;;;;;;4995362;28;20235;-55
2021/01/22 06:54:19;;;;;;;36.20;32.95;;;33.20;52.40;;;;;;5003590;28;20243;-50
2021/01/22 06:57:10;;;;;;;34.10;31.20;;;33.20;52.50;;;;;;5003819;28;20227;-51
2021/01/22 06:59:41;;;;;;;36.50;33.30;;;33.20;52.00;;;;;;4989820;28;20359;-54
2021/01/22 07:02:38;;;;;;;32.45;29.60;;;33.30;52.00;;;;;;5003022;28;20896;-54
2021/01/22 07:05:44;;;;;;;37.70;34.10;;;33.30;51.70;;;;;;5004575;28;20235;-54
2021/01/22 07:08:15;;;;;;;35.92;32.83;;;33.40;52.40;;;;;;5004218;28;20789;-56
2021/01/22 07:10:59;;;;;;;31.83;28.92;;;33.30;52.00;;;;;;5008113;28;20234;-53
2021/01/22 07:13:44;;;;;;;39.00;35.40;;;33.40;52.00;;;;;;5030940;28;20926;-51
2021/01/22 07:16:24;;;;;;;38.58;35.08;;;33.40;51.80;;;;;;5042319;28;20221;-51
2021/01/22 07:18:57;;;;;;;40.97;37.28;;;33.50;52.30;;;;;;5038296;28;20250;-55
2021/01/22 07:21:31;;;;;;;43.67;39.95;;;33.50;52.60;;;;;;5046415;28;20237;-52
2021/01/22 07:24:02;;;;;;;39.83;36.38;;;33.60;53.10;;;;;;5029027;28;20248;-54
2021/01/22 07:26:37;;;;;;;40.45;37.03;;;33.60;53.20;;;;;;5033639;28;20226;-52
2021/01/22 07:29:24;;;;;;;38.60;34.97;;;33.70;52.90;;;;;;4979924;28;20297;-50
2021/01/22 07:31:56;;;;;;;43.72;39.70;;;33.80;52.70;;;;;;4986435;28;20400;-56
2021/01/22 07:34:45;;;;;;;40.50;36.88;;;33.90;52.50;;;;;;4989438;28;20266;-51
2021/01/22 07:37:20;;;;;;;45.28;41.33;;;33.90;52.50;;;;;;4982261;28;20252;-56
2021/01/22 07:39:51;;;;;;;46.80;42.55;;;33.90;52.80;;;;;;4988823;28;20301;-55
2021/01/22 07:42:22;;;;;;;45.83;41.75;;;33.90;53.30;;;;;;4988305;28;20294;-54
2021/01/22 07:44:53;;;;;;;47.70;43.35;;;34.00;53.20;;;;;;4994037;28;20236;-52
2021/01/22 07:47:27;;;;;;;50.33;45.63;;;34.00;53.40;;;;;;4993219;28;20231;-52
2021/01/22 07:50:00;;;;;;;44.30;40.60;;;34.00;53.00;;;;;;4987910;28;20238;-51
2021/01/22 07:52:31;;;;;;;44.47;40.58;;;34.00;52.80;;;;;;4982230;28;20236;-53
2021/01/22 07:55:03;;;;;;;45.28;41.33;;;34.00;53.00;;;;;;5043715;28;20241;-56
2021/01/22 07:57:34;;;;;;;41.28;37.67;;;34.00;52.90;;;;;;4978687;28;20658;-51
2021/01/22 08:00:10;;;;;;;42.67;38.70;;;34.00;52.80;;;;;;4984646;28;20609;-53
2021/01/22 08:02:41;;;;;;;46.17;41.88;;;34.00;52.20;;;;;;4983626;28;20224;-52
2021/01/22 08:05:13;;;;;;;52.75;47.78;;;34.00;52.50;;;;;;4981728;28;20353;-56
2021/01/22 08:07:44;;;;;;;50.80;46.15;;;34.00;52.40;;;;;;4983141;28;20322;-53
2021/01/22 08:10:15;;;;;;;46.42;42.33;;;34.00;52.40;;;;;;4982149;28;20622;-55
2021/01/22 08:12:56;;;;;;;44.15;40.15;;;34.00;52.40;;;;;;4983433;28;20232;-52
2021/01/22 08:15:27;;;;;;;54.42;49.53;;;34.00;52.30;;;;;;4987164;28;20283;-53
2021/01/22 08:17:59;;;;;;;46.28;41.83;;;34.00;51.90;;;;;;4980600;28;20339;-55
2021/01/22 08:20:32;;;;;;;42.58;38.67;;;33.90;52.00;;;;;;4983157;28;20278;-52
2021/01/22 08:23:02;;;;;;;43.08;38.95;;;33.90;52.80;;;;;;5031532;28;20226;-54
2021/01/22 08:25:35;;;;;;;51.00;46.28;;;33.90;52.20;;;;;;5032586;28;20232;-54
2021/01/22 08:28:06;;;;;;;45.78;41.47;;;33.90;51.90;;;;;;5039568;28;20226;-52
2021/01/22 08:30:37;;;;;;;51.60;46.85;;;33.90;52.00;;;;;;5033141;28;20661;-50
2021/01/22 08:33:08;;;;;;;45.03;40.72;;;33.90;51.70;;;;;;5043222;28;20234;-50
2021/01/22 08:35:40;;;;;;;48.28;43.88;;;33.90;51.80;;;;;;5048273;28;20690;-49
2021/01/22 08:38:11;;;;;;;46.45;42.03;;;33.90;51.30;;;;;;5049477;28;20936;-52
2021/01/22 08:40:41;;;;;;;48.47;43.63;;;33.90;51.40;;;;;;4995042;28;20231;-53
2021/01/22 08:43:12;;;;;;;45.45;41.17;;;33.80;51.20;;;;;;4998736;28;20223;-49
2021/01/22 08:45:43;;;;;;;43.42;39.47;;;33.80;51.40;;;;;;4998410;28;20322;-52
2021/01/22 08:48:13;;;;;;;44.97;40.67;;;33.90;51.30;;;;;;5005619;28;20945;-51
2021/01/22 08:50:46;;;;;;;44.05;39.97;;;33.80;50.60;;;;;;5007523;28;20246;-51
2021/01/22 08:53:16;;;;;;;42.22;38.42;;;33.80;50.40;;;;;;4947250;28;20260;-52
2021/01/22 08:55:46;;;;;;;42.42;38.55;;;33.80;50.60;;;;;;4946469;28;20225;-55
2021/01/22 08:58:17;;;;;;;43.92;40.05;;;33.80;50.60;;;;;;4923162;28;20253;-51
2021/01/22 09:00:56;;;;;;;42.10;38.35;;;33.80;50.40;;;;;;4945583;28;20332;-54
2021/01/22 09:03:28;;;;;;;42.58;38.58;;;33.80;50.50;;;;;;4945103;28;20229;-54
2021/01/22 09:06:00;;;;;;;46.55;42.30;;;33.80;50.60;;;;;;4969368;28;20673;-52
2021/01/22 09:08:32;;;;;;;42.05;38.30;;;33.80;50.80;;;;;;4983120;28;20358;-53
2021/01/22 09:11:03;;;;;;;44.55;40.55;;;33.90;50.80;;;;;;4985926;28;20255;-53
2021/01/22 09:13:34;;;;;;;41.92;38.13;;;33.90;50.50;;;;;;4985192;28;20698;-53
2021/01/22 09:16:07;;;;;;;43.28;39.60;;;33.90;50.40;;;;;;4984074;28;20233;-52
2021/01/22 09:18:38;;;;;;;41.03;37.20;;;33.90;50.10;;;;;;4978792;28;20291;-53
2021/01/22 09:21:12;;;;;;;43.15;39.15;;;33.90;49.90;;;;;;4986629;28;20703;-52
2021/01/22 09:23:46;;;;;;;40.92;37.08;;;33.90;49.80;;;;;;5008487;28;20665;-54
2021/01/22 09:26:16;;;;;;;39.92;36.20;;;34.00;49.80;;;;;;5051022;28;20255;-54
2021/01/22 09:28:47;;;;;;;40.03;36.42;;;34.00;49.80;;;;;;5048617;28;20230;-52
2021/01/22 09:31:18;;;;;;;42.22;38.42;;;34.00;49.80;;;;;;5050290;28;20237;-56
2021/01/22 09:33:49;;;;;;;41.53;38.03;;;34.00;49.90;;;;;;5047154;28;20226;-50
2021/01/22 09:36:21;;;;;;;39.75;36.33;;;34.10;49.90;;;;;;5049094;28;20700;-51
2021/01/22 09:38:51;;;;;;;39.15;35.58;;;34.10;49.80;;;;;;5050869;28;20244;-52
2021/01/22 09:41:22;;;;;;;41.47;37.83;;;34.20;49.60;;;;;;5045075;28;20249;-53
2021/01/22 09:43:56;;;;;;;38.28;35.00;;;34.20;49.30;;;;;;5051114;28;20328;-55
2021/01/22 09:46:26;;;;;;;39.22;35.42;;;34.30;48.90;;;;;;5050288;28;20250;-53
2021/01/22 09:48:57;;;;;;;36.67;33.28;;;34.20;48.80;;;;;;5051303;28;20689;-54
2021/01/22 09:51:29;;;;;;;36.83;33.53;;;34.30;48.50;;;;;;5045938;28;20751;-53
2021/01/22 09:53:59;;;;;;;38.88;35.28;;;34.20;48.20;;;;;;5040490;28;20253;-54
2021/01/22 09:56:30;;;;;;;37.63;34.33;;;34.20;48.40;;;;;;5044484;28;20230;-54
2021/01/22 09:59:01;;;;;;;38.65;35.15;;;34.30;48.30;;;;;;5051778;28;20252;-56
2021/01/22 10:01:32;;;;;;;36.08;32.70;;;34.20;48.10;;;;;;5042311;28;20234;-53
2021/01/22 10:04:04;;;;;;;36.78;33.47;;;34.20;48.20;;;;;;5042774;28;20248;-53
2021/01/22 10:06:36;;;;;;;36.53;33.03;;;34.20;48.10;;;;;;5042333;28;20225;-54
2021/01/22 10:09:09;;;;;;;34.38;31.17;;;34.20;47.70;;;;;;5047874;28;20601;-54
2021/01/22 10:11:41;;;;;;;32.20;29.33;;;34.20;47.50;;;;;;5046055;28;20312;-54
2021/01/22 10:14:14;;;;;;;34.08;30.77;;;34.20;47.60;;;;;;5044170;28;21085;-53
2021/01/22 10:16:45;;;;;;;30.92;28.23;;;34.20;47.40;;;;;;5036690;28;20226;-56
2021/01/22 10:19:16;;;;;;;36.15;32.60;;;34.20;47.50;;;;;;5042228;28;20225;-53
2021/01/22 10:21:47;;;;;;;33.25;30.05;;;34.20;47.30;;;;;;5044912;28;20340;-54
2021/01/22 10:24:18;;;;;;;32.45;29.50;;;34.20;47.50;;;;;;5059259;28;20603;-52
2021/01/22 10:26:49;;;;;;;34.50;31.23;;;34.30;47.90;;;;;;5049460;28;20237;-56
2021/01/22 10:29:20;;;;;;;33.85;30.63;;;34.40;47.80;;;;;;5047671;28;20239;-55
2021/01/22 10:31:51;;;;;;;33.45;30.35;;;34.50;47.80;;;;;;5046789;28;20267;-57
2021/01/22 10:34:22;;;;;;;36.15;32.95;;;34.80;47.80;;;;;;5048379;28;20248;-56
2021/01/22 10:36:53;;;;;;;32.63;29.85;;;35.00;47.30;;;;;;5055837;28;20245;-56
2021/01/22 10:39:24;;;;;;;32.35;29.10;;;35.20;47.10;;;;;;5052717;28;20239;-53
2021/01/22 10:41:54;;;;;;;34.38;31.48;;;35.40;47.00;;;;;;5049930;28;20234;-53
2021/01/22 10:44:25;;;;;;;32.13;28.98;;;35.50;46.20;;;;;;5057911;28;20230;-57
2021/01/22 10:46:56;;;;;;;33.35;30.17;;;35.60;46.00;;;;;;5047986;28;20276;-57
2021/01/22 10:49:27;;;;;;;29.80;27.10;;;35.70;45.70;;;;;;5047110;28;20230;-57
2021/01/22 10:51:58;;;;;;;35.35;32.05;;;35.70;45.90;;;;;;5037697;28;20234;-56
2021/01/22 10:54:30;;;;;;;40.60;36.60;;;35.80;46.60;;;;;;5055624;28;20238;-54
2021/01/22 10:57:01;;;;;;;46.90;42.42;;;35.80;47.10;;;;;;5059484;28;20290;-53
2021/01/22 10:59:31;;;;;;;41.85;38.05;;;35.70;47.40;;;;;;5062932;28;20230;-56
2021/01/22 11:02:08;;;;;;;40.10;35.92;;;35.60;47.50;;;;;;5046796;28;20573;-55
2021/01/22 11:04:41;;;;;;;48.17;43.70;;;35.40;47.90;;;;;;5043902;28;20239;-55
2021/01/22 11:07:16;;;;;;;44.45;40.35;;;35.30;48.30;;;;;;5043242;28;20649;-55
2021/01/22 11:09:46;;;;;;;48.17;43.45;;;35.10;48.60;;;;;;5047757;28;20630;-54
2021/01/22 11:12:17;;;;;;;43.95;39.75;;;34.90;49.20;;;;;;5051099;28;20281;-56
2021/01/22 11:14:48;;;;;;;46.33;41.92;;;34.60;49.50;;;;;;5056073;28;20225;-55
2021/01/22 11:17:18;;;;;;;45.78;41.53;;;34.40;49.90;;;;;;5054702;28;20279;-54
2021/01/22 11:19:49;;;;;;;50.13;45.55;;;34.20;50.40;;;;;;5055274;28;20282;-54
2021/01/22 11:22:21;;;;;;;59.53;53.33;;;33.90;50.90;;;;;;5050936;28;20508;-57
2021/01/22 11:24:51;;;;;;;58.15;52.47;;;33.70;51.50;;;;;;5046615;28;20257;-53
2021/01/22 11:27:22;;;;;;;52.88;47.38;;;33.50;51.70;;;;;;5050026;28;20226;-55
2021/01/22 11:29:53;;;;;;;48.47;43.97;;;33.30;52.00;;;;;;5055802;28;20278;-51
2021/01/22 11:32:26;;;;;;;47.90;43.28;;;33.10;52.40;;;;;;5052217;28;20244;-56
2021/01/22 11:34:57;;;;;;;40.53;36.90;;;33.00;53.00;;;;;;5053899;28;20230;-57
2021/01/22 11:37:30;;;;;;;38.60;35.15;;;32.80;53.00;;;;;;5059041;28;20236;-55
2021/01/22 11:40:01;;;;;;;34.78;31.67;;;32.60;53.30;;;;;;5054637;28;20285;-56
2021/01/22 11:42:31;;;;;;;37.45;33.88;;;32.60;53.50;;;;;;5045345;28;20230;-57
2021/01/22 11:45:02;;;;;;;36.05;32.80;;;32.50;53.80;;;;;;5045045;28;20244;-57
2021/01/22 11:47:33;;;;;;;37.25;33.83;;;32.40;54.00;;;;;;5049342;28;20689;-57
2021/01/22 11:50:05;;;;;;;35.42;31.83;;;32.30;54.20;;;;;;5050221;28;20229;-56
2021/01/22 11:52:37;;;;;;;35.20;32.05;;;32.30;54.50;;;;;;5055730;28;20248;-57
2021/01/22 11:55:08;;;;;;;35.97;32.28;;;32.20;54.70;;;;;;5024061;28;20231;-56
2021/01/22 11:57:39;;;;;;;37.05;33.45;;;32.10;54.90;;;;;;5033113;28;20242;-56
2021/01/22 12:00:11;;;;;;;38.42;34.97;;;32.00;54.90;;;;;;5026596;28;20230;-56
2021/01/22 12:02:42;;;;;;;37.78;34.17;;;32.00;55.10;;;;;;5028923;28;20261;-57
2021/01/22 12:05:15;;;;;;;39.35;35.47;;;31.90;55.10;;;;;;5033350;28;20238;-56
2021/01/22 12:07:47;;;;;;;37.67;33.97;;;31.90;55.20;;;;;;5028951;28;20235;-56
2021/01/22 12:10:17;;;;;;;37.55;34.22;;;31.80;55.40;;;;;;5024010;28;20230;-56
2021/01/22 12:12:48;;;;;;;35.00;31.70;;;31.80;55.50;;;;;;5042101;28;20227;-56
2021/01/22 12:15:19;;;;;;;36.95;33.35;;;31.70;55.60;;;;;;5020682;28;20591;-54
2021/01/22 12:17:50;;;;;;;35.63;32.42;;;31.60;55.80;;;;;;5039405;28;20357;-57
2021/01/22 12:20:21;;;;;;;37.78;33.72;;;31.60;55.90;;;;;;5051444;28;20225;-57
2021/01/22 12:22:53;;;;;;;34.55;31.25;;;31.50;56.10;;;;;;5056961;28;20288;-54
2021/01/22 12:25:23;;;;;;;37.25;33.58;;;31.50;56.20;;;;;;5046343;28;20218;-56
2021/01/22 12:27:54;;;;;;;36.65;33.08;;;31.40;56.30;;;;;;5034386;28;20253;-57
2021/01/22 12:30:26;;;;;;;42.78;38.28;;;31.30;56.40;;;;;;5038878;28;20246;-56
2021/01/22 12:32:57;;;;;;;42.42;38.30;;;31.30;56.60;;;;;;5042868;28;20230;-56
2021/01/22 12:35:27;;;;;;;38.67;34.90;;;31.30;56.80;;;;;;5048531;28;20694;-57
2021/01/22 12:37:59;;;;;;;41.10;37.08;;;31.20;56.80;;;;;;5045119;28;20362;-53
2021/01/22 12:40:30;;;;;;;41.47;37.58;;;31.10;57.00;;;;;;5032563;28;20221;-56
2021/01/22 12:43:01;;;;;;;42.35;38.15;;;31.10;57.10;;;;;;5053455;28;20331;-55
2021/01/22 12:45:31;;;;;;;41.60;37.58;;;31.00;57.20;;;;;;5038827;28;20667;-55
2021/01/22 12:48:03;;;;;;;40.50;36.88;;;30.90;57.50;;;;;;5030627;28;20250;-56
2021/01/22 12:50:34;;;;;;;43.15;38.78;;;30.80;57.70;;;;;;5044503;28;20410;-56
2021/01/22 12:53:06;;;;;;;43.28;38.95;;;30.80;57.80;;;;;;5055987;28;20222;-56